createdAt,value
2022-07-25T00:00:18.755Z,7.45
2022-07-25T00:02:45.947Z,7.35
2022-07-25T00:05:12.324Z,7.68
2022-07-25T00:07:38.757Z,7.43
2022-07-25T00:10:05.723Z,8.30
2022-07-25T00:12:32.349Z,7.10
2022-07-25T00:14:58.972Z,7.82
2022-07-25T00:17:25.513Z,8.48
2022-07-25T00:19:52.147Z,7.85
2022-07-25T00:22:18.753Z,7.35
2022-07-25T00:24:45.449Z,7.38
2022-07-25T00:27:11.837Z,7.93
2022-07-25T00:29:38.490Z,7.35
2022-07-25T00:32:05.783Z,8.32
2022-07-25T00:34:32.567Z,7.60
2022-07-25T00:36:59.037Z,7.45
2022-07-25T00:39:25.529Z,7.68
2022-07-25T00:41:52.000Z,6.78
2022-07-25T00:44:30.173Z,7.07
2022-07-25T00:46:57.947Z,6.75
2022-07-25T00:49:25.951Z,7.35
2022-07-25T00:51:53.926Z,6.78
2022-07-25T00:54:21.209Z,6.13
2022-07-25T00:56:48.529Z,6.50
2022-07-25T00:59:14.968Z,6.35
2022-07-25T01:01:42.696Z,6.65
2022-07-25T01:04:09.490Z,5.95
2022-07-25T01:06:38.939Z,6.50
2022-07-25T01:09:05.711Z,6.60
2022-07-25T01:11:32.221Z,6.72
2022-07-25T01:13:58.850Z,6.30
2022-07-25T01:16:25.400Z,5.78
2022-07-25T01:18:51.971Z,6.53
2022-07-25T01:21:18.505Z,6.25
2022-07-25T01:23:44.942Z,5.57
2022-07-25T01:26:11.477Z,5.65
2022-07-25T01:28:37.916Z,6.45
2022-07-25T01:31:04.468Z,6.18
2022-07-25T01:33:30.975Z,5.40
2022-07-25T01:35:57.803Z,6.32
2022-07-25T01:38:24.270Z,5.95
2022-07-25T01:40:50.791Z,6.05
2022-07-25T01:43:18.173Z,5.85
2022-07-25T01:45:44.599Z,5.25
2022-07-25T01:48:11.218Z,5.50
2022-07-25T01:50:37.630Z,5.70
2022-07-25T01:53:04.301Z,5.93
2022-07-25T01:55:30.934Z,5.40
2022-07-25T01:57:59.136Z,5.95
2022-07-25T02:00:26.361Z,5.88
2022-07-25T02:03:11.531Z,5.50
2022-07-25T02:05:37.992Z,6.00
2022-07-25T02:08:04.718Z,5.60
2022-07-25T02:10:31.671Z,5.20
2022-07-25T02:12:58.115Z,5.05
2022-07-25T02:15:24.532Z,5.38
2022-07-25T02:17:50.921Z,5.00
2022-07-25T02:20:17.389Z,5.13
2022-07-25T02:22:43.780Z,5.13
2022-07-25T02:25:10.351Z,4.65
2022-07-25T02:27:36.715Z,4.30
2022-07-25T02:30:04.181Z,4.63
2022-07-25T02:32:30.577Z,4.28
2022-07-25T02:34:58.351Z,3.95
2022-07-25T02:37:24.926Z,4.25
2022-07-25T02:39:51.424Z,4.13
2022-07-25T02:42:17.849Z,3.80
2022-07-25T02:44:44.273Z,4.20
2022-07-25T02:47:10.712Z,3.60
2022-07-25T02:49:37.119Z,3.92
2022-07-25T02:52:03.901Z,4.20
2022-07-25T02:54:30.312Z,3.70
2022-07-25T02:56:56.749Z,3.67
2022-07-25T02:59:23.201Z,3.58
2022-07-25T03:01:49.818Z,3.50
2022-07-25T03:04:16.384Z,3.45
2022-07-25T03:06:43.635Z,3.42
2022-07-25T03:09:10.021Z,3.58
2022-07-25T03:11:36.498Z,3.50
2022-07-25T03:14:03.618Z,4.03
2022-07-25T03:16:30.311Z,4.22
2022-07-25T03:18:56.737Z,3.60
2022-07-25T03:21:23.266Z,3.63
2022-07-25T03:23:52.694Z,3.38
2022-07-25T03:26:20.207Z,3.80
2022-07-25T03:28:46.685Z,3.35
2022-07-25T03:31:13.088Z,3.75
2022-07-25T03:33:39.477Z,3.53
2022-07-25T03:36:06.278Z,3.15
2022-07-25T03:38:32.675Z,3.22
2022-07-25T03:40:59.095Z,3.20
2022-07-25T03:43:25.491Z,3.35
2022-07-25T03:45:51.980Z,3.22
2022-07-25T03:48:18.560Z,3.08
2022-07-25T03:50:44.953Z,2.78
2022-07-25T03:53:11.490Z,3.58
2022-07-25T03:55:39.571Z,3.10
2022-07-25T03:58:07.036Z,3.10
2022-07-25T04:00:33.452Z,3.63
2022-07-25T04:03:00.723Z,3.40
2022-07-25T04:05:27.634Z,3.15
2022-07-25T04:07:54.210Z,3.05
2022-07-25T04:10:20.602Z,3.22
2022-07-25T04:12:47.053Z,3.30
2022-07-25T04:15:13.636Z,3.10
2022-07-25T04:17:40.142Z,3.20
2022-07-25T04:20:07.590Z,3.38
2022-07-25T04:22:34.117Z,3.47
2022-07-25T04:25:00.566Z,3.10
2022-07-25T04:27:27.032Z,3.55
2022-07-25T04:29:53.476Z,3.15
2022-07-25T04:32:23.273Z,3.05
2022-07-25T04:34:52.142Z,2.83
2022-07-25T04:37:18.692Z,3.17
2022-07-25T04:39:45.122Z,2.67
2022-07-25T04:42:11.672Z,3.10
2022-07-25T04:44:38.093Z,3.05
2022-07-25T04:47:04.903Z,3.10
2022-07-25T04:49:31.364Z,2.88
2022-07-25T04:51:57.746Z,3.33
2022-07-25T04:54:24.317Z,2.97
2022-07-25T04:56:50.791Z,3.08
2022-07-25T04:59:17.420Z,2.67
2022-07-25T05:01:43.926Z,2.92
2022-07-25T05:04:10.664Z,2.95
2022-07-25T05:06:37.228Z,3.15
2022-07-25T05:09:04.103Z,3.38
2022-07-25T05:11:30.487Z,3.00
2022-07-25T05:13:57.121Z,3.13
2022-07-25T05:16:23.620Z,3.13
2022-07-25T05:18:50.096Z,3.00
2022-07-25T05:21:16.620Z,2.97
2022-07-25T05:23:43.183Z,3.35
2022-07-25T05:26:09.892Z,3.35
2022-07-25T05:28:36.445Z,3.40
2022-07-25T05:31:03.262Z,2.83
2022-07-25T05:33:29.833Z,2.97
2022-07-25T05:35:56.395Z,2.90
2022-07-25T05:38:22.909Z,3.33
2022-07-25T05:40:52.130Z,3.03
2022-07-25T05:43:19.172Z,3.30
2022-07-25T05:45:47.303Z,3.05
2022-07-25T05:48:14.788Z,3.10
2022-07-25T05:50:41.420Z,3.33
2022-07-25T05:53:07.940Z,3.50
2022-07-25T05:55:34.494Z,3.55
2022-07-25T05:58:02.570Z,2.97
2022-07-25T06:00:29.690Z,3.08
2022-07-25T06:02:59.730Z,2.92
2022-07-25T06:05:26.877Z,3.15
2022-07-25T06:07:53.329Z,2.85
2022-07-25T06:10:20.513Z,3.30
2022-07-25T06:12:47.007Z,3.10
2022-07-25T06:15:22.903Z,3.40
2022-07-25T06:17:53.438Z,2.83
2022-07-25T06:20:20.125Z,3.05
2022-07-25T06:22:46.570Z,3.15
2022-07-25T06:25:13.080Z,3.38
2022-07-25T06:27:39.581Z,3.00
2022-07-25T06:30:18.717Z,3.28
2022-07-25T06:32:46.023Z,3.10
2022-07-25T06:35:12.498Z,3.05
2022-07-25T06:37:39.911Z,3.08
2022-07-25T06:40:07.527Z,3.42
2022-07-25T06:42:38.197Z,3.38
2022-07-25T06:45:05.766Z,3.05
2022-07-25T06:47:35.880Z,3.58
2022-07-25T06:50:03.586Z,3.35
2022-07-25T06:52:34.398Z,3.58
2022-07-25T06:55:01.281Z,3.47
2022-07-25T06:57:27.837Z,3.30
2022-07-25T06:59:54.419Z,3.63
2022-07-25T07:02:21.163Z,3.53
2022-07-25T07:04:47.691Z,3.05
2022-07-25T07:07:14.600Z,3.10
2022-07-25T07:09:41.070Z,3.20
2022-07-25T07:12:08.580Z,3.42
2022-07-25T07:14:35.243Z,3.05
2022-07-25T07:17:01.749Z,3.00
2022-07-25T07:19:28.319Z,3.00
2022-07-25T07:21:54.832Z,3.17
2022-07-25T07:24:23.912Z,3.08
2022-07-25T07:26:52.060Z,3.85
2022-07-25T07:29:18.579Z,3.95
2022-07-25T07:31:45.061Z,3.58
2022-07-25T07:34:11.844Z,3.53
2022-07-25T07:36:42.883Z,3.50
2022-07-25T07:39:09.567Z,3.53
2022-07-25T07:41:36.113Z,3.83
2022-07-25T07:44:02.671Z,3.55
2022-07-25T07:46:29.234Z,3.65
2022-07-25T07:48:55.995Z,3.50
2022-07-25T07:51:22.624Z,3.70
2022-07-25T07:54:07.765Z,3.97
2022-07-25T07:56:34.320Z,3.92
2022-07-25T07:59:00.783Z,4.35
2022-07-25T08:01:27.263Z,4.28
2022-07-25T08:03:53.715Z,4.25
2022-07-25T08:06:20.215Z,4.63
2022-07-25T08:08:46.593Z,4.40
2022-07-25T08:11:13.048Z,4.75
2022-07-25T08:13:39.507Z,4.22
2022-07-25T08:16:06.841Z,5.03
2022-07-25T08:18:33.826Z,4.63
2022-07-25T08:21:03.388Z,4.28
2022-07-25T08:23:31.716Z,4.50
2022-07-25T08:25:59.312Z,4.63
2022-07-25T08:28:26.031Z,4.75
2022-07-25T08:30:52.533Z,5.10
2022-07-25T08:33:19.144Z,4.88
2022-07-25T08:35:54.461Z,6.30
2022-07-25T08:38:22.492Z,5.38
2022-07-25T08:40:49.004Z,5.07
2022-07-25T08:43:16.347Z,4.97
2022-07-25T08:45:48.096Z,5.10
2022-07-25T08:48:17.080Z,4.63
2022-07-25T08:50:43.617Z,4.90
2022-07-25T08:53:32.101Z,5.00
2022-07-25T08:55:56.992Z,4.85
2022-07-25T08:58:23.649Z,5.35
2022-07-25T09:00:50.246Z,4.90
2022-07-25T09:03:16.839Z,4.93
2022-07-25T09:05:44.658Z,5.07
2022-07-25T09:08:17.437Z,5.13
2022-07-25T09:10:50.478Z,4.80
2022-07-25T09:13:18.646Z,5.28
2022-07-25T09:15:46.199Z,5.40
2022-07-25T09:18:17.260Z,5.25
2022-07-25T09:20:49.373Z,5.10
2022-07-25T09:23:38.928Z,5.47
2022-07-25T09:26:06.715Z,4.80
2022-07-25T09:28:47.192Z,5.53
2022-07-25T09:31:15.251Z,4.75
2022-07-25T09:33:56.843Z,4.60
2022-07-25T09:36:23.706Z,5.07
2022-07-25T09:38:53.536Z,5.15
2022-07-25T09:41:20.377Z,5.22
2022-07-25T09:43:47.579Z,5.65
2022-07-25T09:46:14.120Z,5.78
2022-07-25T09:48:44.739Z,4.78
2022-07-25T09:51:11.309Z,5.72
2022-07-25T09:53:37.816Z,5.65
2022-07-25T09:56:07.648Z,4.50
2022-07-25T09:58:34.128Z,4.72
2022-07-25T10:01:05.545Z,5.57
2022-07-25T10:03:53.186Z,5.32
2022-07-25T10:06:38.668Z,4.85
2022-07-25T10:09:11.824Z,4.82
2022-07-25T10:11:38.444Z,4.85
2022-07-25T10:14:12.498Z,4.80
2022-07-25T10:16:48.744Z,4.85
2022-07-25T10:19:15.339Z,5.32
2022-07-25T10:21:42.285Z,5.22
2022-07-25T10:24:10.375Z,4.60
2022-07-25T10:26:40.033Z,4.22
2022-07-25T10:29:13.858Z,4.60
2022-07-25T10:31:50.404Z,5.00
2022-07-25T10:34:29.010Z,4.38
2022-07-25T10:36:57.081Z,5.05
2022-07-25T10:39:24.082Z,5.00
2022-07-25T10:41:55.893Z,4.60
2022-07-25T10:44:22.517Z,4.75
2022-07-25T10:46:50.148Z,4.80
2022-07-25T10:49:31.026Z,4.85
2022-07-25T10:52:00.902Z,4.93
2022-07-25T10:54:33.861Z,4.45
2022-07-25T10:57:00.731Z,4.72
2022-07-25T10:59:38.382Z,4.68
2022-07-25T11:02:08.429Z,4.68
2022-07-25T11:04:36.223Z,4.47
2022-07-25T11:07:09.667Z,5.13
2022-07-25T11:09:37.784Z,5.10
2022-07-25T11:12:04.632Z,4.32
2022-07-25T11:14:33.111Z,4.55
2022-07-25T11:17:14.686Z,4.75
2022-07-25T11:19:54.711Z,4.88
2022-07-25T11:22:21.593Z,4.65
2022-07-25T11:24:48.632Z,4.95
2022-07-25T11:27:28.145Z,5.28
2022-07-25T11:30:16.841Z,4.78
2022-07-25T11:32:55.953Z,5.05
2022-07-25T11:35:28.937Z,5.22
2022-07-25T11:37:56.037Z,4.93
2022-07-25T11:40:23.996Z,5.03
2022-07-25T11:42:53.014Z,4.78
2022-07-25T11:45:25.611Z,4.50
2022-07-25T11:48:09.972Z,5.18
2022-07-25T11:50:39.803Z,4.68
2022-07-25T11:53:08.588Z,5.15
2022-07-25T11:55:40.128Z,4.57
2022-07-25T11:58:07.413Z,4.63
2022-07-25T12:00:38.862Z,5.05
2022-07-25T12:03:14.133Z,4.18
2022-07-25T12:05:44.295Z,4.65
2022-07-25T12:08:19.617Z,3.90
2022-07-25T12:10:48.233Z,4.53
2022-07-25T12:13:29.629Z,4.38
2022-07-25T12:15:58.089Z,4.20
2022-07-25T12:18:25.881Z,4.53
2022-07-25T12:20:53.184Z,4.22
2022-07-25T12:23:21.552Z,3.60
2022-07-25T12:25:48.120Z,3.42
2022-07-25T12:28:14.839Z,3.85
2022-07-25T12:30:43.214Z,3.47
2022-07-25T12:33:10.496Z,3.20
2022-07-25T12:35:37.422Z,3.60
2022-07-25T12:38:05.136Z,3.55
2022-07-25T12:40:31.956Z,4.00
2022-07-25T12:42:59.321Z,4.00
2022-07-25T12:45:26.570Z,3.97
2022-07-25T12:47:53.337Z,3.90
2022-07-25T12:50:19.868Z,4.32
2022-07-25T12:52:47.104Z,4.15
2022-07-25T12:55:19.468Z,4.40
2022-07-25T12:57:50.396Z,4.57
2022-07-25T13:00:19.454Z,4.32
2022-07-25T13:02:47.233Z,4.43
2022-07-25T13:05:14.000Z,4.40
2022-07-25T13:07:41.503Z,5.20
2022-07-25T13:10:12.815Z,4.50
2022-07-25T13:12:39.346Z,4.88
2022-07-25T13:15:06.498Z,5.40
2022-07-25T13:17:33.139Z,4.55
2022-07-25T13:20:00.704Z,5.20
2022-07-25T13:22:27.672Z,5.10
2022-07-25T13:24:54.474Z,4.70
2022-07-25T13:27:22.387Z,4.75
2022-07-25T13:29:53.997Z,4.95
2022-07-25T13:32:21.478Z,5.03
2022-07-25T13:34:47.990Z,4.95
2022-07-25T13:37:14.460Z,5.68
2022-07-25T13:39:42.157Z,4.82
2022-07-25T13:42:08.753Z,4.97
2022-07-25T13:44:36.095Z,4.90
2022-07-25T13:47:02.765Z,5.13
2022-07-25T13:49:30.823Z,4.75
2022-07-25T13:51:57.260Z,5.13
2022-07-25T13:54:23.882Z,4.85
2022-07-25T13:56:50.361Z,5.05
2022-07-25T13:59:21.239Z,5.38
2022-07-25T14:01:49.335Z,5.40
2022-07-25T14:04:16.042Z,4.93
2022-07-25T14:06:43.064Z,5.00
2022-07-25T14:09:10.064Z,5.45
2022-07-25T14:11:36.925Z,5.20
2022-07-25T14:14:03.661Z,5.35
2022-07-25T14:16:30.433Z,5.50
2022-07-25T14:18:57.112Z,5.60
2022-07-25T14:21:23.985Z,5.82
2022-07-25T14:23:52.035Z,5.75
2022-07-25T14:26:18.538Z,6.50
2022-07-25T14:28:45.138Z,6.80
2022-07-25T14:31:11.959Z,7.18
2022-07-25T14:33:39.971Z,6.60
2022-07-25T14:36:08.506Z,7.20
2022-07-25T14:38:35.565Z,8.80
2022-07-25T14:41:04.890Z,7.82
2022-07-25T14:43:33.224Z,8.95
2022-07-25T14:45:59.675Z,7.07
2022-07-25T14:48:26.188Z,6.72
2022-07-25T14:50:52.647Z,7.18
2022-07-25T14:53:19.402Z,6.75
2022-07-25T14:55:45.826Z,6.97
2022-07-25T14:58:13.803Z,7.30
2022-07-25T15:00:43.099Z,6.68
2022-07-25T15:03:09.835Z,5.70
2022-07-25T15:05:36.359Z,6.95
2022-07-25T15:08:02.835Z,6.13
2022-07-25T15:10:29.767Z,5.50
2022-07-25T15:13:20.590Z,3.63
2022-07-25T15:15:48.085Z,4.10
2022-07-25T15:18:14.783Z,4.00
2022-07-25T15:20:41.244Z,4.88
2022-07-25T15:23:07.791Z,4.35
2022-07-25T15:26:00.527Z,3.50
2022-07-25T15:28:21.292Z,3.60
2022-07-25T15:30:48.285Z,3.42
2022-07-25T15:33:15.496Z,3.00
2022-07-25T15:35:43.520Z,3.67
2022-07-25T15:38:10.031Z,3.50
2022-07-25T15:40:36.549Z,3.70
2022-07-25T15:43:03.262Z,4.03
2022-07-25T15:45:33.067Z,3.90
2022-07-25T15:48:01.381Z,5.43
2022-07-25T15:50:42.895Z,5.32
2022-07-25T15:53:10.454Z,5.03
2022-07-25T15:55:38.393Z,4.50
2022-07-25T15:58:05.195Z,5.65
2022-07-25T16:00:31.778Z,7.28
2022-07-25T16:02:58.497Z,8.57
2022-07-25T16:05:25.225Z,5.35
2022-07-25T16:07:51.942Z,6.05
2022-07-25T16:10:18.737Z,6.38
2022-07-25T16:12:45.248Z,8.15
2022-07-25T16:15:11.869Z,7.53
2022-07-25T16:17:38.405Z,4.93
2022-07-25T16:20:07.169Z,5.10
2022-07-25T16:22:34.148Z,5.55
2022-07-25T16:25:01.238Z,4.75
2022-07-25T16:27:28.581Z,5.43
2022-07-25T16:29:56.867Z,5.78
2022-07-25T16:32:23.601Z,9.02
2022-07-25T16:34:50.069Z,8.35
2022-07-25T16:37:16.714Z,5.85
2022-07-25T16:39:43.238Z,5.35
2022-07-25T16:42:09.864Z,5.63
2022-07-25T16:44:36.375Z,4.95
2022-07-25T16:47:03.474Z,5.38
2022-07-25T16:49:30.155Z,5.00
2022-07-25T16:51:56.822Z,5.15
2022-07-25T16:54:23.708Z,5.50
2022-07-25T16:56:53.248Z,5.70
2022-07-25T16:59:21.293Z,5.55
2022-07-25T17:01:47.874Z,5.80
2022-07-25T17:04:14.438Z,5.22
2022-07-25T17:06:41.708Z,6.57
2022-07-25T17:09:08.703Z,5.20
2022-07-25T17:11:35.468Z,5.65
2022-07-25T17:14:02.836Z,5.53
2022-07-25T17:16:29.455Z,6.13
2022-07-25T17:18:56.059Z,5.45
2022-07-25T17:21:22.587Z,5.65
2022-07-25T17:23:52.373Z,5.18
2022-07-25T17:26:22.311Z,5.60
2022-07-25T17:28:48.772Z,4.22
2022-07-25T17:31:15.369Z,4.72
2022-07-25T17:33:41.867Z,3.75
2022-07-25T17:36:09.306Z,3.72
2022-07-25T17:38:36.804Z,3.63
2022-07-25T17:41:03.993Z,3.60
2022-07-25T17:43:30.444Z,3.38
2022-07-25T17:45:57.001Z,3.67
2022-07-25T17:48:23.719Z,3.78
2022-07-25T17:50:50.399Z,3.72
2022-07-25T17:53:18.087Z,4.05
2022-07-25T17:55:45.355Z,3.67
2022-07-25T17:58:12.134Z,4.35
2022-07-25T18:00:38.850Z,4.00
2022-07-25T18:03:06.038Z,4.10
2022-07-25T18:05:33.047Z,4.55
2022-07-25T18:07:59.574Z,4.47
2022-07-25T18:10:26.056Z,3.80
2022-07-25T18:12:52.909Z,3.80
2022-07-25T18:15:19.825Z,3.38
2022-07-25T18:17:47.784Z,3.90
2022-07-25T18:20:15.650Z,4.10
2022-07-25T18:22:42.486Z,4.15
2022-07-25T18:25:11.295Z,4.13
2022-07-25T18:27:41.311Z,4.53
2022-07-25T18:30:08.702Z,4.00
2022-07-25T18:32:35.521Z,3.45
2022-07-25T18:35:02.232Z,3.78
2022-07-25T18:37:28.755Z,3.92
2022-07-25T18:39:55.259Z,3.88
2022-07-25T18:42:26.182Z,4.47
2022-07-25T18:44:55.880Z,3.75
2022-07-25T18:47:25.475Z,4.53
2022-07-25T18:49:55.459Z,4.15
2022-07-25T18:52:23.200Z,4.25
2022-07-25T18:54:49.965Z,4.07
2022-07-25T18:57:16.882Z,3.95
2022-07-25T18:59:43.435Z,4.00
2022-07-25T19:02:10.854Z,4.18
2022-07-25T19:04:37.459Z,4.10
2022-07-25T19:07:03.869Z,4.50
2022-07-25T19:09:30.331Z,3.63
2022-07-25T19:11:56.830Z,4.10
2022-07-25T19:14:26.004Z,3.83
2022-07-25T19:16:53.662Z,4.38
2022-07-25T19:19:20.285Z,3.78
2022-07-25T19:21:46.750Z,4.15
2022-07-25T19:24:13.359Z,4.20
2022-07-25T19:26:41.374Z,3.92
2022-07-25T19:29:09.800Z,4.28
2022-07-25T19:31:38.099Z,4.35
2022-07-25T19:34:06.403Z,4.18
2022-07-25T19:36:33.365Z,5.18
2022-07-25T19:39:00.846Z,3.88
2022-07-25T19:41:27.816Z,4.70
2022-07-25T19:43:54.395Z,4.97
2022-07-25T19:46:21.298Z,4.35
2022-07-25T19:48:47.958Z,4.10
2022-07-25T19:51:14.467Z,3.70
2022-07-25T19:53:40.905Z,3.58
2022-07-25T19:56:08.363Z,3.60
2022-07-25T19:58:38.691Z,3.08
2022-07-25T20:01:05.739Z,3.78
2022-07-25T20:03:32.367Z,3.50
2022-07-25T20:05:58.803Z,4.20
2022-07-25T20:08:25.221Z,3.60
2022-07-25T20:10:51.752Z,3.53
2022-07-25T20:13:18.215Z,3.50
2022-07-25T20:15:44.844Z,4.15
2022-07-25T20:18:16.059Z,3.40
2022-07-25T20:20:45.893Z,3.30
2022-07-25T20:23:12.504Z,4.35
2022-07-25T20:25:39.052Z,4.07
2022-07-25T20:28:05.709Z,4.18
2022-07-25T20:30:34.939Z,4.40
2022-07-25T20:33:05.535Z,4.32
2022-07-25T20:35:37.110Z,4.55
2022-07-25T20:38:09.203Z,3.90
2022-07-25T20:40:37.867Z,3.70
2022-07-25T20:43:08.203Z,3.90
2022-07-25T20:45:34.818Z,3.83
2022-07-25T20:48:01.368Z,3.63
2022-07-25T20:50:27.868Z,3.78
2022-07-25T20:52:54.483Z,4.35
2022-07-25T20:55:22.387Z,3.35
2022-07-25T20:57:50.896Z,3.53
2022-07-25T21:00:18.016Z,4.38
2022-07-25T21:02:44.742Z,3.80
2022-07-25T21:05:11.183Z,4.03
2022-07-25T21:07:37.820Z,4.45
2022-07-25T21:10:04.721Z,3.72
2022-07-25T21:12:33.026Z,4.60
2022-07-25T21:15:01.047Z,3.92
2022-07-25T21:17:27.659Z,3.72
2022-07-25T21:19:54.154Z,3.88
2022-07-25T21:22:20.699Z,4.25
2022-07-25T21:24:49.239Z,4.07
2022-07-25T21:27:17.087Z,4.05
2022-07-25T21:29:43.635Z,3.38
2022-07-25T21:32:13.071Z,4.30
2022-07-25T21:34:40.928Z,4.20
2022-07-25T21:37:07.806Z,4.05
2022-07-25T21:39:34.287Z,4.90
2022-07-25T21:42:01.516Z,4.78
2022-07-25T21:44:27.981Z,4.72
2022-07-25T21:46:54.451Z,4.68
2022-07-25T21:49:41.272Z,4.93
2022-07-25T21:52:08.760Z,4.72
2022-07-25T21:54:41.538Z,4.72
2022-07-25T21:57:13.822Z,4.88
2022-07-25T21:59:42.392Z,4.13
2022-07-25T22:02:08.934Z,4.53
2022-07-25T22:04:35.620Z,4.53
2022-07-25T22:07:02.401Z,4.35
2022-07-25T22:09:28.884Z,4.85
2022-07-25T22:11:56.549Z,4.57
2022-07-25T22:14:23.273Z,4.60
2022-07-25T22:16:49.997Z,4.50
2022-07-25T22:19:18.899Z,4.35
2022-07-25T22:21:48.798Z,4.53
2022-07-25T22:24:15.266Z,4.13
2022-07-25T22:26:41.683Z,4.47
2022-07-25T22:29:08.735Z,4.13
2022-07-25T22:31:35.771Z,4.68
2022-07-25T22:34:02.450Z,5.00
2022-07-25T22:36:28.829Z,4.35
2022-07-25T22:38:55.565Z,4.75
2022-07-25T22:41:21.883Z,4.45
2022-07-25T22:43:56.902Z,5.25
2022-07-25T22:46:26.008Z,4.30
2022-07-25T22:48:52.649Z,4.18
2022-07-25T22:51:19.433Z,4.40
2022-07-25T22:53:46.169Z,4.07
2022-07-25T22:56:12.562Z,4.30
2022-07-25T22:58:39.485Z,5.38
2022-07-25T23:01:05.987Z,4.20
2022-07-25T23:03:33.228Z,4.68
2022-07-25T23:05:59.953Z,5.15
2022-07-25T23:08:26.522Z,4.43
2022-07-25T23:10:53.045Z,5.20
2022-07-25T23:13:19.599Z,4.57
2022-07-25T23:15:49.642Z,4.20
2022-07-25T23:18:17.508Z,3.53
2022-07-25T23:20:43.999Z,4.30
2022-07-25T23:23:10.375Z,4.20
2022-07-25T23:25:36.879Z,4.07
2022-07-25T23:28:03.320Z,4.65
2022-07-25T23:30:29.938Z,4.10
2022-07-25T23:32:56.709Z,4.00
2022-07-25T23:35:23.281Z,3.53
2022-07-25T23:37:49.678Z,4.15
2022-07-25T23:40:16.218Z,4.35
2022-07-25T23:42:42.898Z,4.05
2022-07-25T23:45:10.076Z,4.20
2022-07-25T23:47:39.578Z,4.38
2022-07-25T23:50:08.157Z,4.20
2022-07-25T23:52:34.661Z,4.05
2022-07-25T23:55:01.131Z,3.53
2022-07-25T23:57:27.671Z,3.90
2022-07-25T23:59:54.150Z,3.72
